Time;durP1;ratioP1;P1;durP2;ratioP2;P2;SDS_P1;SDS_P2;PMS_P1;PMS_P2;Temp;Humidity;BMP_temperature;BMP_pressure;BME280_temperature;BME280_humidity;BME280_pressure;Samples;Min_cycle;Max_cycle;Signal;HPM_P1;HPM_P2
2022/02/17 07:08:13;;;;;;;1.95;1.45;;;9.70;99.90;;;;;;6805012;19;51317;-79
2022/02/17 07:10:58;;;;;;;2.70;1.60;;;8.70;99.90;;;;;;7387131;19;20332;-78
2022/02/17 07:13:27;;;;;;;3.00;1.50;;;8.60;99.90;;;;;;7387594;19;20685;-76
2022/02/17 07:15:53;;;;;;;3.45;1.67;;;8.60;99.90;;;;;;7387819;19;20320;-78
2022/02/17 07:18:19;;;;;;;2.55;1.55;;;8.60;99.90;;;;;;7391777;19;20324;-77
2022/02/17 07:20:46;;;;;;;2.20;1.60;;;8.60;99.90;;;;;;7389448;19;20411;-77
2022/02/17 07:23:12;;;;;;;2.85;1.52;;;8.40;99.90;;;;;;7386796;19;20325;-78
2022/02/17 07:25:38;;;;;;;1.55;1.30;;;8.40;99.90;;;;;;7390501;19;20345;-77
2022/02/17 07:28:05;;;;;;;3.40;1.60;;;8.40;99.90;;;;;;7386781;19;20855;-77
2022/02/17 07:30:31;;;;;;;2.78;1.58;;;8.40;99.90;;;;;;7386190;19;20317;-77
2022/02/17 07:32:56;;;;;;;2.23;1.33;;;8.40;99.90;;;;;;7397446;19;20375;-78
2022/02/17 07:35:22;;;;;;;2.40;1.65;;;8.40;99.90;;;;;;7390145;19;20734;-77
2022/02/17 07:37:47;;;;;;;2.27;1.60;;;8.40;99.90;;;;;;7391685;19;20336;-78
2022/02/17 07:40:16;;;;;;;3.80;2.10;;;8.40;99.90;;;;;;7390225;19;20550;-78
2022/02/17 07:42:43;;;;;;;2.50;1.50;;;8.40;99.90;;;;;;7388704;19;20309;-77
2022/02/17 07:45:09;;;;;;;2.20;1.80;;;8.30;99.90;;;;;;7390949;19;20388;-78
2022/02/17 07:47:36;;;;;;;2.30;1.83;;;8.40;99.90;;;;;;7391165;19;20686;-77
2022/02/17 07:50:03;;;;;;;3.38;2.92;;;8.40;99.90;;;;;;7388105;19;20329;-77
2022/02/17 07:52:29;;;;;;;6.80;2.17;;;8.50;99.90;;;;;;7377685;19;20943;-77
2022/02/17 07:54:54;;;;;;;2.72;1.88;;;8.60;99.90;;;;;;7393109;19;20329;-77
2022/02/17 07:57:20;;;;;;;4.00;2.10;;;8.90;99.90;;;;;;7395391;19;20332;-80
2022/02/17 07:59:46;;;;;;;2.88;2.13;;;9.00;99.90;;;;;;7392573;19;20335;-78
2022/02/17 08:02:12;;;;;;;4.35;2.47;;;9.10;99.90;;;;;;7384792;19;20361;-80
2022/02/17 08:04:38;;;;;;;4.25;2.45;;;9.10;99.90;;;;;;7393036;19;20863;-77
2022/02/17 08:07:04;;;;;;;4.63;2.37;;;9.20;99.90;;;;;;7390505;19;20424;-80
2022/02/17 08:09:30;;;;;;;3.45;1.98;;;9.20;99.90;;;;;;7389117;19;20332;-80
2022/02/17 08:11:56;;;;;;;3.20;2.20;;;9.30;99.90;;;;;;7387999;19;20352;-81
2022/02/17 08:14:21;;;;;;;2.92;1.95;;;9.20;99.90;;;;;;7388642;19;20372;-76
2022/02/17 08:16:47;;;;;;;4.40;1.90;;;9.30;99.90;;;;;;7386906;19;20396;-77
2022/02/17 08:19:13;;;;;;;2.88;2.10;;;9.30;99.90;;;;;;7387760;19;20320;-79
2022/02/17 08:21:38;;;;;;;2.73;1.80;;;9.30;99.90;;;;;;7380569;19;20380;-76
2022/02/17 08:24:05;;;;;;;3.30;1.95;;;9.40;99.90;;;;;;7360316;19;20713;-77
2022/02/17 08:26:30;;;;;;;3.75;1.83;;;9.30;99.90;;;;;;7378707;19;20364;-78
2022/02/17 08:28:58;;;;;;;3.13;1.70;;;9.30;99.90;;;;;;7384155;19;20304;-77
2022/02/17 08:31:25;;;;;;;3.03;2.00;;;9.40;99.90;;;;;;7376368;19;21037;-78
2022/02/17 08:33:51;;;;;;;2.00;1.30;;;9.30;99.90;;;;;;7382625;19;20316;-78
2022/02/17 08:36:16;;;;;;;2.20;1.73;;;9.40;99.90;;;;;;7384642;19;20339;-78
2022/02/17 08:38:43;;;;;;;2.65;1.85;;;9.30;99.90;;;;;;7384772;19;20321;-79
2022/02/17 08:41:09;;;;;;;1.60;1.40;;;9.50;99.90;;;;;;7385561;19;20305;-76
2022/02/17 08:43:35;;;;;;;3.45;1.35;;;9.70;99.90;;;;;;7385785;19;20319;-77
2022/02/17 08:46:01;;;;;;;2.28;1.60;;;9.60;99.90;;;;;;7389906;19;20412;-79
2022/02/17 08:48:27;;;;;;;2.70;1.85;;;9.60;99.90;;;;;;7385776;19;20315;-79
2022/02/17 08:50:52;;;;;;;2.87;1.70;;;9.50;99.90;;;;;;7384326;19;20341;-78
2022/02/17 08:53:19;;;;;;;1.80;1.45;;;9.50;99.90;;;;;;7384594;19;20724;-78
2022/02/17 08:55:45;;;;;;;2.40;1.63;;;9.60;99.90;;;;;;7384395;19;20344;-78
2022/02/17 08:58:10;;;;;;;1.60;1.50;;;9.70;99.90;;;;;;7382919;19;21005;-77
2022/02/17 09:00:36;;;;;;;2.20;1.50;;;9.60;99.90;;;;;;7383714;19;20332;-79
2022/02/17 09:03:03;;;;;;;3.00;1.40;;;9.70;99.90;;;;;;7381097;19;20878;-78
2022/02/17 09:05:31;;;;;;;1.30;1.20;;;9.60;99.90;;;;;;7384004;19;20342;-78
2022/02/17 09:07:57;;;;;;;2.30;1.45;;;9.60;99.90;;;;;;7383575;19;20317;-79
2022/02/17 09:10:23;;;;;;;2.70;1.40;;;9.60;99.90;;;;;;7381235;19;20363;-79
2022/02/17 09:12:48;;;;;;;2.60;1.43;;;9.60;99.90;;;;;;7375832;19;20328;-77
2022/02/17 09:15:14;;;;;;;1.67;1.40;;;9.60;99.90;;;;;;7386328;19;20367;-79
2022/02/17 09:17:40;;;;;;;4.47;1.90;;;9.60;99.90;;;;;;7386109;19;20336;-79
2022/02/17 09:20:06;;;;;;;1.52;1.35;;;9.60;99.90;;;;;;7383574;19;20328;-78
2022/02/17 09:22:31;;;;;;;3.80;1.63;;;9.80;99.90;;;;;;7382792;19;20329;-78
2022/02/17 09:24:57;;;;;;;4.47;1.90;;;9.80;99.90;;;;;;7385880;19;20345;-78
2022/02/17 09:27:22;;;;;;;2.63;1.55;;;9.80;99.90;;;;;;7382673;19;20334;-78
2022/02/17 09:29:48;;;;;;;2.23;1.47;;;9.70;99.90;;;;;;7379639;19;20324;-78
2022/02/17 09:32:14;;;;;;;1.83;1.48;;;9.80;99.90;;;;;;7386356;19;20321;-78
2022/02/17 09:34:40;;;;;;;2.03;1.33;;;9.80;99.90;;;;;;7384768;19;20354;-78
2022/02/17 09:37:06;;;;;;;8.15;1.83;;;9.70;99.90;;;;;;7371609;19;20376;-79
2022/02/17 09:39:33;;;;;;;1.93;1.47;;;9.70;99.90;;;;;;7389717;19;20313;-79
2022/02/17 09:42:02;;;;;;;1.60;1.45;;;9.80;99.90;;;;;;7392233;19;20878;-78
2022/02/17 09:44:28;;;;;;;2.17;1.70;;;9.70;99.90;;;;;;7392321;19;20316;-78
2022/02/17 09:46:54;;;;;;;3.25;1.98;;;9.70;99.90;;;;;;7393957;19;20331;-79
2022/02/17 09:49:20;;;;;;;5.80;2.30;;;9.70;99.90;;;;;;7392750;19;20349;-78
2022/02/17 09:51:46;;;;;;;1.75;1.60;;;9.70;99.90;;;;;;7395683;19;20397;-78
2022/02/17 09:54:11;;;;;;;2.50;1.75;;;9.60;99.90;;;;;;7398621;19;20309;-76
2022/02/17 09:56:38;;;;;;;3.08;1.75;;;9.60;99.90;;;;;;7386331;19;20344;-76
2022/02/17 09:59:03;;;;;;;4.03;1.73;;;9.70;99.90;;;;;;7384964;19;20356;-76
2022/02/17 10:01:30;;;;;;;4.07;1.60;;;9.70;99.90;;;;;;7385671;19;20320;-76
2022/02/17 10:04:18;;;;;;;4.45;1.50;;;9.70;99.90;;;;;;7379203;19;20362;-77
2022/02/17 10:06:44;;;;;;;2.75;1.58;;;9.70;99.90;;;;;;7391474;19;20293;-79
2022/02/17 10:09:10;;;;;;;1.30;1.20;;;9.90;99.90;;;;;;7391372;19;20847;-78
2022/02/17 10:11:36;;;;;;;4.28;1.70;;;9.70;99.90;;;;;;7394648;19;20385;-78
2022/02/17 10:14:06;;;;;;;1.85;1.52;;;9.70;99.90;;;;;;7394503;19;20353;-78
2022/02/17 10:16:50;;;;;;;2.67;1.63;;;9.90;99.90;;;;;;7393341;19;20379;-78
2022/02/17 10:19:16;;;;;;;2.05;1.25;;;9.90;99.90;;;;;;7394061;19;20378;-78
2022/02/17 10:21:44;;;;;;;3.78;1.38;;;10.20;99.90;;;;;;7392082;19;20339;-77
2022/02/17 10:24:29;;;;;;;1.50;1.40;;;10.30;99.90;;;;;;7393625;19;20352;-78
2022/02/17 10:27:11;;;;;;;1.67;1.30;;;10.50;99.90;;;;;;7275492;19;2004553;-81
2022/02/17 10:29:39;;;;;;;3.05;1.58;;;10.60;99.90;;;;;;7392998;19;20334;-78
2022/02/17 10:32:12;;;;;;;3.65;1.50;;;10.70;99.90;;;;;;7392864;19;20325;-81
2022/02/17 10:34:39;;;;;;;2.05;1.20;;;10.90;99.90;;;;;;7294494;19;2004355;-79
2022/02/17 10:37:07;;;;;;;1.67;1.33;;;10.80;99.90;;;;;;7392890;19;20742;-79
2022/02/17 10:39:34;;;;;;;2.30;1.50;;;10.80;99.90;;;;;;7395222;19;20344;-80
2022/02/17 10:42:02;;;;;;;3.20;1.50;;;10.70;99.90;;;;;;7395595;19;21021;-80
2022/02/17 10:44:35;;;;;;;1.30;1.20;;;10.50;99.90;;;;;;7396168;19;20777;-78
2022/02/17 10:47:15;;;;;;;6.22;1.63;;;10.40;99.90;;;;;;7392901;19;20319;-79
2022/02/17 10:49:49;;;;;;;1.30;1.20;;;10.30;99.90;;;;;;7388669;19;20720;-78
2022/02/17 10:52:36;;;;;;;1.88;1.25;;;10.20;99.90;;;;;;7386447;19;20404;-78
2022/02/17 10:55:26;;;;;;;3.13;1.17;;;10.00;99.90;;;;;;7392132;19;20297;-77
2022/02/17 10:57:51;;;;;;;1.55;1.35;;;9.90;99.90;;;;;;7283697;19;2004368;-78
2022/02/17 11:00:22;;;;;;;2.00;1.35;;;9.90;99.90;;;;;;7389624;19;20300;-77
2022/02/17 11:02:48;;;;;;;8.45;1.35;;;9.90;99.90;;;;;;7374624;19;20396;-78
2022/02/17 11:05:14;;;;;;;1.45;1.33;;;9.90;99.90;;;;;;7390202;19;20766;-78
2022/02/17 11:07:40;;;;;;;2.30;1.23;;;9.90;99.90;;;;;;7388496;19;20431;-78
2022/02/17 11:10:08;;;;;;;1.75;1.63;;;9.90;99.90;;;;;;7388741;19;20364;-77
2022/02/17 11:12:36;;;;;;;2.10;1.38;;;9.90;99.90;;;;;;7391459;19;20342;-75
2022/02/17 11:15:05;;;;;;;1.55;1.45;;;9.90;99.90;;;;;;7391187;19;20317;-77
2022/02/17 11:17:34;;;;;;;1.55;1.45;;;10.00;99.90;;;;;;7389332;19;20824;-78
2022/02/17 11:20:01;;;;;;;2.28;1.60;;;10.00;99.90;;;;;;7388516;19;20363;-78
2022/02/17 11:22:27;;;;;;;1.80;1.40;;;10.00;99.90;;;;;;7386078;19;20317;-78
2022/02/17 11:24:53;;;;;;;1.48;1.27;;;10.00;99.90;;;;;;7388421;19;20336;-78
2022/02/17 11:27:19;;;;;;;3.85;1.35;;;10.00;99.90;;;;;;7388889;19;20352;-77
2022/02/17 11:29:45;;;;;;;1.92;1.55;;;10.00;99.90;;;;;;7390357;19;20332;-77
2022/02/17 11:32:14;;;;;;;1.97;1.23;;;10.00;99.90;;;;;;7387869;19;20424;-78
2022/02/17 11:34:47;;;;;;;4.60;1.30;;;10.10;99.90;;;;;;7391680;19;20979;-78
2022/02/17 11:37:32;;;;;;;1.40;1.30;;;10.00;99.90;;;;;;7395466;19;20340;-78
2022/02/17 11:40:14;;;;;;;2.00;1.00;;;10.00;99.90;;;;;;7388166;19;20340;-79
2022/02/17 11:42:45;;;;;;;2.30;1.30;;;10.00;99.90;;;;;;7389242;19;20321;-78
2022/02/17 11:45:21;;;;;;;1.40;1.20;;;10.00;99.90;;;;;;7391780;19;20331;-78
2022/02/17 11:47:50;;;;;;;2.97;1.50;;;10.10;99.90;;;;;;7367691;19;20856;-79
2022/02/17 11:50:47;;;;;;;3.58;1.73;;;10.20;99.90;;;;;;7389001;19;20328;-78
2022/02/17 11:53:32;;;;;;;2.85;1.63;;;10.10;99.90;;;;;;7288647;19;2004385;-78
2022/02/17 11:56:19;;;;;;;3.22;1.60;;;10.00;99.90;;;;;;7289562;19;2004751;-76
2022/02/17 11:58:58;;;;;;;1.50;1.40;;;9.90;99.90;;;;;;7289370;19;2004250;-79
2022/02/17 12:01:24;;;;;;;1.55;1.25;;;9.90;99.90;;;;;;7388746;19;20372;-79
2022/02/17 12:04:03;;;;;;;2.37;1.37;;;9.90;99.90;;;;;;7395487;19;20380;-78
2022/02/17 12:06:50;;;;;;;1.33;1.23;;;9.90;99.90;;;;;;7292669;19;2004331;-78
2022/02/17 12:09:44;;;;;;;2.42;1.50;;;9.80;99.90;;;;;;7294643;19;2004303;-78
2022/02/17 12:12:20;;;;;;;1.38;1.23;;;9.80;99.90;;;;;;7390804;19;20397;-78
2022/02/17 12:14:52;;;;;;;1.55;1.33;;;9.70;99.90;;;;;;7390364;19;20312;-77
2022/02/17 12:17:34;;;;;;;1.98;1.52;;;9.60;99.90;;;;;;7384379;19;20368;-78
2022/02/17 12:20:14;;;;;;;1.48;1.38;;;9.00;99.90;;;;;;7385194;19;20684;-79
2022/02/17 12:22:55;;;;;;;2.40;1.60;;;8.70;99.90;;;;;;7393865;19;20313;-78
2022/02/17 12:25:28;;;;;;;1.35;1.08;;;8.60;99.90;;;;;;7388201;19;20304;-79
2022/02/17 12:28:01;;;;;;;1.83;1.30;;;8.70;99.90;;;;;;7394922;19;20467;-81
2022/02/17 12:30:36;;;;;;;1.50;1.17;;;8.90;99.90;;;;;;7395006;19;20324;-79
2022/02/17 12:33:12;;;;;;;5.67;1.50;;;9.00;99.90;;;;;;7391433;19;20340;-80
2022/02/17 12:35:41;;;;;;;2.20;1.27;;;9.10;99.90;;;;;;7394540;19;20351;-80
2022/02/17 12:38:21;;;;;;;2.80;1.20;;;9.10;99.90;;;;;;6093199;19;10001630;-80
2022/02/17 12:40:59;;;;;;;3.35;1.42;;;9.10;99.90;;;;;;7387322;19;20314;-80
2022/02/17 12:43:37;;;;;;;2.22;1.23;;;9.10;99.90;;;;;;7389028;19;20355;-80
2022/02/17 12:46:04;;;;;;;3.63;1.48;;;9.20;99.90;;;;;;7353975;19;20371;-80
2022/02/17 12:48:32;;;;;;;2.10;1.35;;;9.30;99.90;;;;;;7388113;19;20308;-81
2022/02/17 12:51:53;;;;;;;1.00;1.00;;;9.30;99.90;;;;;;7390869;19;20893;-79
2022/02/17 12:54:39;;;;;;;0.90;0.90;;;9.30;99.90;;;;;;7181241;19;2004355;-80
2022/02/17 12:57:57;;;;;;;1.50;1.20;;;9.30;99.90;;;;;;7281953;19;2004184;-80
2022/02/17 13:00:25;;;;;;;2.92;2.00;;;9.30;99.90;;;;;;7282817;19;2004376;-79
2022/02/17 13:03:02;;;;;;;1.50;1.40;;;9.30;99.90;;;;;;7364387;19;20321;-79
2022/02/17 13:06:17;;;;;;;3.13;1.90;;;9.30;99.90;;;;;;7388867;19;20341;-80
2022/02/17 13:08:34;;;;;;;2.67;1.80;;;9.30;99.90;;;;;;7286569;19;2004467;-79
2022/02/17 13:10:59;;;;;;;2.17;1.43;;;9.10;99.90;;;;;;7393537;19;20316;-79
2022/02/17 13:13:25;;;;;;;5.50;2.85;;;9.20;99.90;;;;;;7390392;19;20336;-78
2022/02/17 13:15:51;;;;;;;2.27;0.97;;;9.20;99.90;;;;;;7385808;19;20352;-78
2022/02/17 13:18:16;;;;;;;1.30;1.10;;;9.20;99.90;;;;;;7389942;19;20349;-77
2022/02/17 13:20:42;;;;;;;5.80;1.40;;;9.20;99.90;;;;;;7387431;19;20732;-79
2022/02/17 13:23:22;;;;;;;1.15;1.05;;;9.20;99.90;;;;;;7396131;19;20395;-79
2022/02/17 13:25:48;;;;;;;1.33;1.15;;;9.20;99.90;;;;;;7287939;19;2004335;-78
2022/02/17 13:28:15;;;;;;;1.38;1.10;;;9.00;99.90;;;;;;7394223;19;20309;-79
2022/02/17 13:30:44;;;;;;;2.38;1.15;;;8.80;99.90;;;;;;7394384;19;20359;-77
2022/02/17 13:33:09;;;;;;;1.30;1.20;;;8.80;99.90;;;;;;7395421;19;20325;-78
2022/02/17 13:35:48;;;;;;;2.13;1.00;;;8.90;99.90;;;;;;7398446;19;20324;-80
2022/02/17 13:38:14;;;;;;;0.95;0.90;;;9.00;99.90;;;;;;7394998;19;20363;-81
2022/02/17 13:41:13;;;;;;;1.10;1.00;;;9.00;99.90;;;;;;7381439;19;20356;-79
2022/02/17 13:43:45;;;;;;;2.30;1.05;;;8.90;99.90;;;;;;7394671;19;20326;-80
2022/02/17 13:46:11;;;;;;;0.70;0.70;;;8.20;99.90;;;;;;7400430;19;20329;-81
2022/02/17 13:48:37;;;;;;;0.80;0.80;;;8.00;99.90;;;;;;7405780;19;20313;-78
2022/02/17 13:51:08;;;;;;;1.05;0.98;;;8.00;99.90;;;;;;7413371;19;20312;-79
2022/02/17 13:53:48;;;;;;;1.20;1.10;;;8.00;99.90;;;;;;7407881;19;20340;-79
2022/02/17 13:56:16;;;;;;;1.20;0.93;;;8.10;99.90;;;;;;7412239;19;20317;-80
2022/02/17 13:58:59;;;;;;;1.33;0.98;;;8.20;99.90;;;;;;7413114;19;20312;-79
2022/02/17 14:01:50;;;;;;;2.70;1.02;;;8.30;99.90;;;;;;7401808;19;20358;-81
2022/02/17 14:04:35;;;;;;;1.55;1.27;;;8.30;99.90;;;;;;7289999;19;2004213;-80
2022/02/17 14:07:01;;;;;;;1.17;1.08;;;8.40;99.90;;;;;;7304582;19;2004329;-80
2022/02/17 14:09:47;;;;;;;1.70;1.10;;;8.30;99.90;;;;;;7415907;19;20339;-79
2022/02/17 14:12:12;;;;;;;1.83;1.30;;;8.40;99.90;;;;;;7395886;19;20336;-80
2022/02/17 14:14:38;;;;;;;1.98;1.40;;;8.30;99.90;;;;;;7404055;19;20962;-80
2022/02/17 14:17:03;;;;;;;2.03;1.47;;;8.40;99.90;;;;;;7403801;19;20353;-79
2022/02/17 14:19:29;;;;;;;2.35;1.60;;;8.40;99.90;;;;;;7401413;19;20362;-79
2022/02/17 14:21:55;;;;;;;4.10;1.47;;;8.40;99.90;;;;;;7403522;19;20343;-80
2022/02/17 14:24:22;;;;;;;1.80;1.20;;;8.50;99.90;;;;;;7401999;19;21169;-80
2022/02/17 14:26:48;;;;;;;2.80;1.60;;;8.50;99.90;;;;;;7365664;19;20357;-79
2022/02/17 14:29:14;;;;;;;1.98;1.20;;;8.50;99.90;;;;;;7404141;19;20323;-80
2022/02/17 14:31:40;;;;;;;1.80;1.40;;;8.50;99.90;;;;;;7378971;19;20328;-80
2022/02/17 14:36:48;;;;;;;1.55;1.30;;;8.40;99.90;;;;;;7351605;19;21187;-79
2022/02/17 14:39:13;;;;;;;1.83;1.30;;;8.40;99.90;;;;;;7382597;19;20400;-78
2022/02/17 14:41:39;;;;;;;2.63;1.30;;;8.40;99.90;;;;;;7388174;19;20342;-78
2022/02/17 14:44:05;;;;;;;3.35;1.85;;;8.40;99.90;;;;;;7394289;19;20333;-78
2022/02/17 14:46:31;;;;;;;1.20;1.10;;;8.50;99.90;;;;;;7390535;19;20352;-78
2022/02/17 14:48:56;;;;;;;1.90;1.70;;;8.30;99.90;;;;;;7390275;19;20344;-77
2022/02/17 14:51:22;;;;;;;3.37;1.80;;;8.30;99.90;;;;;;7389046;19;20313;-77
2022/02/17 14:53:48;;;;;;;1.52;1.30;;;8.20;99.90;;;;;;7387760;19;20332;-77
2022/02/17 14:56:17;;;;;;;3.65;2.17;;;8.00;99.90;;;;;;7382724;19;20393;-77
2022/02/17 14:58:43;;;;;;;1.90;1.30;;;7.60;99.90;;;;;;7384445;19;20862;-78
2022/02/17 15:01:11;;;;;;;1.38;1.20;;;7.60;99.90;;;;;;7381499;19;20356;-77
2022/02/17 15:03:37;;;;;;;1.30;1.20;;;7.60;99.90;;;;;;7384272;19;21239;-78
2022/02/17 15:06:02;;;;;;;1.50;1.30;;;7.60;99.90;;;;;;7383198;19;20343;-78
2022/02/17 15:08:28;;;;;;;1.15;1.05;;;7.80;99.90;;;;;;7383661;19;20377;-78
2022/02/17 15:10:54;;;;;;;1.70;1.40;;;7.70;99.90;;;;;;7383841;19;20349;-77
2022/02/17 15:13:20;;;;;;;2.42;1.40;;;7.80;99.90;;;;;;7387209;19;20420;-78
2022/02/17 15:15:45;;;;;;;2.30;1.87;;;8.00;99.90;;;;;;7388734;19;20750;-79
2022/02/17 15:18:11;;;;;;;2.43;1.30;;;8.00;99.90;;;;;;7395524;19;20468;-79
2022/02/17 15:21:00;;;;;;;2.42;1.40;;;8.00;99.90;;;;;;7402382;19;20336;-81
2022/02/17 17:16:00;;;;;;;3.65;1.40;;;7.10;99.90;;;;;;4771988;19;21289873;-79
2022/02/17 17:18:43;;;;;;;3.55;1.60;;;7.10;99.90;;;;;;7431103;19;20360;-79
2022/02/17 17:21:58;;;;;;;1.83;1.50;;;7.10;99.90;;;;;;7399132;19;20420;-81
2022/02/17 17:24:43;;;;;;;4.38;1.75;;;6.90;99.90;;;;;;7453168;19;20354;-79
2022/02/17 17:27:18;;;;;;;2.15;1.50;;;6.90;99.90;;;;;;7419398;19;20343;-80
2022/02/17 17:30:09;;;;;;;1.00;1.00;;;6.90;99.90;;;;;;7263736;19;2004164;-79
2022/02/17 17:32:53;;;;;;;2.72;1.20;;;6.90;99.90;;;;;;7321970;19;2003699;-80
2022/02/17 17:36:39;;;;;;;2.20;1.30;;;6.90;99.90;;;;;;7320752;19;2004525;-79
2022/02/17 17:40:06;;;;;;;1.13;1.02;;;6.90;99.90;;;;;;7401493;19;20389;-80
2022/02/17 17:45:58;;;;;;;6.05;3.35;;;6.70;99.90;;;;;;7299846;19;2004706;-80
2022/02/17 17:49:27;;;;;;;1.70;1.40;;;6.70;99.90;;;;;;7254710;19;2004025;-80
2022/02/17 17:51:59;;;;;;;1.75;1.27;;;6.70;99.90;;;;;;7291776;19;2004357;-79
2022/02/17 17:54:46;;;;;;;2.40;1.73;;;6.60;99.90;;;;;;7423754;19;20344;-79
2022/02/17 17:58:08;;;;;;;3.23;1.80;;;6.60;99.90;;;;;;7273364;19;2004193;-80
2022/02/17 18:00:56;;;;;;;2.13;1.42;;;6.40;99.90;;;;;;7312799;19;2004121;-80
2022/02/17 18:03:53;;;;;;;1.88;1.50;;;6.50;99.90;;;;;;7316262;19;20411;-79
2022/02/17 18:06:29;;;;;;;1.58;1.48;;;6.50;99.90;;;;;;7342152;19;20980;-81
2022/02/17 18:09:13;;;;;;;3.90;2.28;;;6.50;99.90;;;;;;7357436;19;20381;-79
2022/02/17 18:11:46;;;;;;;4.40;1.95;;;6.50;99.90;;;;;;7364510;19;20348;-79
2022/02/17 18:14:54;;;;;;;2.70;1.80;;;6.40;99.90;;;;;;7334396;19;20347;-81
2022/02/17 18:17:29;;;;;;;2.78;1.60;;;6.40;99.90;;;;;;7313939;19;2004168;-78
2022/02/17 18:20:20;;;;;;;4.88;3.38;;;6.50;99.90;;;;;;7364419;19;20328;-80
2022/02/17 18:23:14;;;;;;;2.00;1.80;;;6.60;99.90;;;;;;7419550;19;20356;-80
2022/02/17 18:26:08;;;;;;;2.45;2.20;;;6.50;99.90;;;;;;7368100;19;20312;-79
2022/02/17 18:29:07;;;;;;;3.38;2.10;;;6.40;99.90;;;;;;7396340;19;20402;-81
2022/02/17 18:32:42;;;;;;;3.00;2.30;;;6.40;99.90;;;;;;7287853;19;2004350;-80
2022/02/17 18:36:13;;;;;;;4.03;3.08;;;6.30;99.90;;;;;;7194788;19;2004411;-79
2022/02/17 18:39:23;;;;;;;2.75;2.47;;;6.40;99.90;;;;;;7350439;19;20383;-79
2022/02/17 18:41:53;;;;;;;2.97;2.60;;;6.40;99.90;;;;;;7271322;19;2004618;-79
2022/02/17 18:47:12;;;;;;;2.15;1.55;;;6.40;99.90;;;;;;7270469;19;2004189;-78
2022/02/17 18:49:38;;;;;;;2.13;1.45;;;6.40;99.90;;;;;;7376498;19;20316;-78
2022/02/17 18:52:06;;;;;;;2.60;1.40;;;6.60;99.90;;;;;;7357618;19;20392;-78
2022/02/17 18:54:32;;;;;;;2.05;1.23;;;6.60;99.90;;;;;;7375208;19;20439;-78
2022/02/17 18:56:57;;;;;;;1.83;1.38;;;6.70;99.90;;;;;;7369304;19;20436;-77
2022/02/17 18:59:27;;;;;;;3.53;2.60;;;6.70;99.90;;;;;;7371600;19;20771;-77
2022/02/17 19:01:55;;;;;;;1.80;1.30;;;6.70;99.90;;;;;;7372390;19;20344;-78
2022/02/17 19:04:21;;;;;;;5.20;2.20;;;6.70;99.90;;;;;;7354192;19;20420;-78
2022/02/17 19:06:47;;;;;;;1.60;1.50;;;6.60;99.90;;;;;;7366732;19;20996;-78
2022/02/17 19:09:12;;;;;;;2.73;1.60;;;6.60;99.90;;;;;;7374846;19;20361;-79
2022/02/17 19:11:38;;;;;;;1.10;1.00;;;6.60;99.90;;;;;;7380529;19;20328;-80
2022/02/17 19:14:05;;;;;;;2.15;1.50;;;6.60;99.90;;;;;;7374462;19;20696;-78
2022/02/17 19:16:35;;;;;;;2.70;1.63;;;6.60;99.90;;;;;;7353884;19;20360;-79
2022/02/17 19:19:09;;;;;;;3.08;1.50;;;6.50;99.90;;;;;;7375165;19;20381;-80
2022/02/17 19:21:39;;;;;;;1.60;1.33;;;6.50;99.90;;;;;;7359405;19;20469;-78
2022/02/17 19:24:07;;;;;;;2.03;1.05;;;6.50;99.90;;;;;;7376673;19;20337;-80
2022/02/17 19:26:34;;;;;;;1.23;1.13;;;6.50;99.90;;;;;;7366494;19;20340;-78
2022/02/17 19:29:01;;;;;;;1.95;1.20;;;6.50;99.90;;;;;;7373872;19;20344;-80
2022/02/17 19:31:26;;;;;;;2.00;1.38;;;6.50;99.90;;;;;;7374823;19;20341;-78
2022/02/17 19:33:52;;;;;;;3.35;1.55;;;6.60;99.90;;;;;;7376124;19;20321;-78
2022/02/17 19:36:21;;;;;;;1.90;1.27;;;6.40;99.90;;;;;;7367255;19;20381;-78
2022/02/17 19:38:50;;;;;;;1.23;1.10;;;6.30;99.90;;;;;;7371702;19;20320;-79
2022/02/17 19:41:19;;;;;;;1.27;1.20;;;6.30;99.90;;;;;;7375340;19;20344;-78
2022/02/17 19:43:45;;;;;;;1.87;1.20;;;6.20;99.90;;;;;;7375855;19;20312;-79
2022/02/17 19:46:11;;;;;;;1.20;1.10;;;6.20;99.90;;;;;;7373156;19;20336;-78
2022/02/17 19:48:37;;;;;;;2.10;1.23;;;6.10;99.90;;;;;;7375304;19;20321;-78
2022/02/17 19:51:03;;;;;;;2.17;1.58;;;6.10;99.90;;;;;;7353457;19;20423;-79
2022/02/17 19:53:28;;;;;;;1.33;1.23;;;6.10;99.90;;;;;;7376979;19;20370;-79
2022/02/17 19:55:55;;;;;;;2.83;1.50;;;6.10;99.90;;;;;;7356338;19;20333;-79
2022/02/17 19:58:20;;;;;;;2.50;1.10;;;6.10;99.90;;;;;;7369863;19;20341;-80
2022/02/17 20:00:49;;;;;;;1.30;1.20;;;6.10;99.90;;;;;;7368923;19;20361;-79
2022/02/17 20:03:15;;;;;;;2.30;1.35;;;6.10;99.90;;;;;;7374837;19;20354;-79
2022/02/17 20:05:41;;;;;;;3.03;1.38;;;6.20;99.90;;;;;;7377131;19;20368;-78
2022/02/17 20:08:07;;;;;;;1.20;1.10;;;6.20;99.90;;;;;;7370563;19;20418;-80
2022/02/17 20:10:33;;;;;;;1.42;1.30;;;6.10;99.90;;;;;;7373378;19;20337;-80
2022/02/17 20:12:59;;;;;;;1.40;1.23;;;6.20;99.90;;;;;;7380227;19;20336;-80
2022/02/17 20:15:25;;;;;;;1.70;1.40;;;6.20;99.90;;;;;;7357349;19;20876;-79
2022/02/17 20:17:51;;;;;;;1.00;1.00;;;6.20;99.90;;;;;;7379928;19;20388;-78
2022/02/17 20:20:17;;;;;;;2.22;1.73;;;6.20;99.90;;;;;;7379711;19;20471;-79
2022/02/17 20:22:43;;;;;;;1.35;1.25;;;6.20;99.90;;;;;;7358407;19;20344;-80
2022/02/17 20:25:12;;;;;;;2.20;1.58;;;6.20;99.90;;;;;;7375264;19;20794;-78
2022/02/17 20:27:37;;;;;;;2.90;1.45;;;6.20;99.90;;;;;;7375306;19;20341;-79
2022/02/17 20:30:03;;;;;;;2.07;1.80;;;6.10;99.90;;;;;;7373189;19;20340;-79
2022/02/17 20:32:29;;;;;;;2.92;1.50;;;6.10;99.90;;;;;;7373800;19;20352;-80
2022/02/17 20:34:55;;;;;;;2.13;1.60;;;6.00;99.90;;;;;;7375744;19;20355;-78
2022/02/17 20:37:21;;;;;;;1.45;1.27;;;6.20;99.90;;;;;;7374191;19;20308;-79
2022/02/17 20:39:46;;;;;;;2.23;1.43;;;6.10;99.90;;;;;;7375389;19;20344;-78
2022/02/17 20:42:13;;;;;;;2.50;1.40;;;6.20;99.90;;;;;;7375464;19;20359;-80
2022/02/17 20:52:52;;;;;;;3.15;1.55;;;6.10;99.90;;;;;;7362392;19;20352;-79
2022/02/17 20:55:18;;;;;;;1.87;1.50;;;6.00;99.90;;;;;;7374834;19;20329;-79
2022/02/17 20:57:44;;;;;;;1.77;1.40;;;5.90;99.90;;;;;;7370741;19;20332;-78
2022/02/17 21:00:09;;;;;;;2.07;1.27;;;6.00;99.90;;;;;;7368190;19;20393;-79
2022/02/17 21:02:35;;;;;;;3.35;1.63;;;5.90;99.90;;;;;;7371889;19;20337;-78
2022/02/17 21:05:02;;;;;;;1.40;1.25;;;5.80;99.90;;;;;;7368628;19;21268;-78
2022/02/17 21:07:27;;;;;;;2.72;1.52;;;5.80;99.90;;;;;;7373786;19;20340;-79
2022/02/17 21:09:54;;;;;;;1.70;1.30;;;5.80;99.90;;;;;;7377708;19;20321;-77
2022/02/17 21:15:05;;;;;;;2.20;1.67;;;5.80;99.90;;;;;;7377553;19;20317;-79
2022/02/17 21:17:31;;;;;;;5.30;1.30;;;5.70;99.90;;;;;;7221916;19;20360;-79
2022/02/17 21:19:57;;;;;;;1.58;1.48;;;5.60;99.90;;;;;;7226656;19;20352;-79
2022/02/17 21:22:23;;;;;;;2.60;1.53;;;5.70;99.90;;;;;;7313075;19;20317;-80
2022/02/17 21:24:49;;;;;;;2.05;1.42;;;5.70;99.90;;;;;;7381083;19;20428;-79
2022/02/17 21:27:14;;;;;;;1.73;1.30;;;5.70;99.90;;;;;;7381592;19;20366;-78
2022/02/17 21:29:40;;;;;;;1.40;1.27;;;5.60;99.90;;;;;;7381875;19;20871;-79
2022/02/17 21:32:09;;;;;;;1.40;1.30;;;5.50;99.90;;;;;;7386153;19;21502;-79
2022/02/17 21:34:35;;;;;;;3.72;1.27;;;5.60;99.90;;;;;;7382155;19;20351;-78
2022/02/17 21:37:00;;;;;;;4.53;1.45;;;5.70;99.90;;;;;;7378416;19;20668;-78
2022/02/17 21:39:26;;;;;;;2.50;1.57;;;5.60;99.90;;;;;;7385230;19;20351;-80
2022/02/17 21:41:55;;;;;;;2.60;1.50;;;5.60;99.90;;;;;;7386278;19;20362;-80
2022/02/17 21:44:22;;;;;;;1.83;1.55;;;5.60;99.90;;;;;;7383778;19;20961;-78
2022/02/17 21:46:50;;;;;;;3.25;1.38;;;5.60;99.90;;;;;;7382460;19;20395;-79
2022/02/17 21:49:16;;;;;;;1.92;1.30;;;5.60;99.90;;;;;;7386046;19;20353;-79
2022/02/17 21:51:43;;;;;;;2.25;1.33;;;5.60;99.90;;;;;;7384130;19;20341;-80
2022/02/17 21:54:09;;;;;;;3.25;1.35;;;5.60;99.90;;;;;;7385414;19;20432;-80
2022/02/17 21:56:35;;;;;;;1.98;1.40;;;5.50;99.90;;;;;;7379760;19;20337;-79
2022/02/17 21:59:03;;;;;;;2.60;1.37;;;5.50;99.90;;;;;;7381163;19;20954;-78
2022/02/17 22:01:33;;;;;;;5.75;1.58;;;5.40;99.90;;;;;;7345688;19;20448;-80
2022/02/17 22:04:03;;;;;;;2.50;1.60;;;5.60;99.90;;;;;;7385922;19;20349;-80
2022/02/17 22:06:28;;;;;;;5.25;1.80;;;5.50;99.90;;;;;;7360853;19;20352;-78
2022/02/17 22:08:54;;;;;;;3.97;1.40;;;5.50;99.90;;;;;;7383709;19;20356;-79
2022/02/17 22:11:22;;;;;;;3.38;1.45;;;5.50;99.90;;;;;;7367721;19;20359;-80
2022/02/17 22:13:48;;;;;;;1.70;1.25;;;5.30;99.90;;;;;;7376023;19;20345;-78
2022/02/17 22:16:13;;;;;;;2.92;1.40;;;5.60;99.90;;;;;;7353071;19;20321;-78
2022/02/17 22:18:45;;;;;;;1.67;1.50;;;5.50;99.90;;;;;;7386612;19;20337;-79
2022/02/17 22:21:11;;;;;;;2.97;1.45;;;5.50;99.90;;;;;;7382619;19;22159;-79
2022/02/17 22:23:37;;;;;;;1.75;1.35;;;5.50;99.90;;;;;;7382249;19;20329;-78
2022/02/17 22:26:03;;;;;;;2.17;1.50;;;5.40;99.90;;;;;;7380020;19;21407;-78
2022/02/17 22:28:36;;;;;;;1.27;1.17;;;5.40;99.90;;;;;;7378830;19;20321;-80
2022/02/17 22:31:04;;;;;;;1.63;1.35;;;5.30;99.90;;;;;;7277563;19;2004507;-78
2022/02/17 22:33:30;;;;;;;2.72;1.50;;;5.40;99.90;;;;;;7380419;19;20988;-78
2022/02/17 22:35:55;;;;;;;1.50;1.40;;;5.40;99.90;;;;;;7354406;19;20332;-78